createdAt,value
2023-04-16T00:01:01.463Z,45.85
2023-04-16T00:03:28.290Z,45.86
2023-04-16T00:05:55.048Z,45.91
2023-04-16T00:08:21.680Z,45.85
2023-04-16T00:10:48.316Z,45.88
2023-04-16T00:13:14.977Z,45.90
2023-04-16T00:15:41.621Z,45.93
2023-04-16T00:18:08.259Z,45.87
2023-04-16T00:20:34.874Z,45.93
2023-04-16T00:23:01.492Z,45.94
2023-04-16T00:25:28.141Z,45.87
2023-04-16T00:27:54.772Z,45.91
2023-04-16T00:30:21.391Z,45.88
2023-04-16T00:32:48.102Z,45.88
2023-04-16T00:35:14.782Z,45.87
2023-04-16T00:37:41.421Z,45.90
2023-04-16T00:40:08.064Z,45.87
2023-04-16T00:42:34.703Z,45.88
2023-04-16T00:45:01.317Z,45.89
2023-04-16T00:47:28.005Z,45.91
2023-04-16T00:49:54.950Z,45.92
2023-04-16T00:52:21.580Z,45.94
2023-04-16T00:54:48.193Z,45.93
2023-04-16T00:57:14.803Z,45.93
2023-04-16T00:59:41.432Z,45.93
2023-04-16T01:02:08.150Z,45.95
2023-04-16T01:04:34.917Z,45.88
2023-04-16T01:07:01.577Z,45.94
2023-04-16T01:09:28.209Z,45.97
2023-04-16T01:11:54.816Z,45.94
2023-04-16T01:14:21.661Z,45.91
2023-04-16T01:16:48.289Z,45.96
2023-04-16T01:19:14.902Z,45.89
2023-04-16T01:21:41.539Z,45.98
2023-04-16T01:24:08.169Z,46.01
2023-04-16T01:26:34.768Z,46.02
2023-04-16T01:29:01.374Z,46.00
2023-04-16T01:31:28.279Z,45.94
2023-04-16T01:33:54.943Z,46.04
2023-04-16T01:36:21.556Z,45.95
2023-04-16T01:38:48.163Z,45.94
2023-04-16T01:41:14.791Z,45.98
2023-04-16T01:43:41.516Z,45.89
2023-04-16T01:46:08.146Z,46.02
2023-04-16T01:48:35.055Z,46.03
2023-04-16T01:51:01.681Z,46.00
2023-04-16T01:53:28.515Z,46.08
2023-04-16T01:55:55.133Z,46.00
2023-04-16T01:58:21.748Z,46.03
2023-04-16T02:00:48.452Z,46.01
2023-04-16T02:03:15.251Z,46.01
2023-04-16T02:05:41.963Z,46.04
2023-04-16T02:08:08.626Z,46.00
2023-04-16T02:10:35.263Z,46.02
2023-04-16T02:13:01.930Z,46.00
2023-04-16T02:15:28.541Z,46.03
2023-04-16T02:17:55.176Z,46.04
2023-04-16T02:20:22.070Z,46.02
2023-04-16T02:22:48.714Z,46.04
2023-04-16T02:25:15.345Z,46.03
2023-04-16T02:27:41.982Z,46.07
2023-04-16T02:30:08.608Z,46.07
2023-04-16T02:32:35.515Z,46.04
2023-04-16T02:35:02.234Z,46.05
2023-04-16T02:37:28.905Z,46.08
2023-04-16T02:39:55.531Z,46.07
2023-04-16T02:42:22.415Z,46.04
2023-04-16T02:44:49.063Z,46.11
2023-04-16T02:47:15.680Z,46.09
2023-04-16T02:49:42.322Z,46.10
2023-04-16T02:52:08.958Z,46.08
2023-04-16T02:54:35.598Z,46.05
2023-04-16T02:57:02.210Z,46.03
2023-04-16T02:59:29.075Z,46.06
2023-04-16T03:01:55.821Z,46.05
2023-04-16T03:04:22.530Z,46.13
2023-04-16T03:06:49.260Z,46.11
2023-04-16T03:09:15.889Z,46.04
2023-04-16T03:11:42.538Z,46.11
2023-04-16T03:14:09.207Z,46.07
2023-04-16T03:16:36.050Z,46.10
2023-04-16T03:19:02.681Z,46.06
2023-04-16T03:21:29.323Z,46.08
2023-04-16T03:23:55.944Z,46.01
2023-04-16T03:26:22.569Z,46.02
2023-04-16T03:28:49.185Z,46.08
2023-04-16T03:31:15.878Z,46.03
2023-04-16T03:33:42.550Z,46.09
2023-04-16T03:36:09.182Z,46.06
2023-04-16T03:38:35.804Z,46.04
2023-04-16T03:41:02.674Z,46.08
2023-04-16T03:43:29.302Z,46.02
2023-04-16T03:45:56.148Z,46.07
2023-04-16T03:48:22.767Z,46.11
2023-04-16T03:50:49.410Z,46.06
2023-04-16T03:53:16.058Z,46.01
2023-04-16T03:55:42.701Z,46.04
2023-04-16T03:58:09.345Z,46.10
2023-04-16T04:00:35.994Z,46.12
2023-04-16T04:03:03.016Z,46.16
2023-04-16T04:05:29.867Z,46.04
2023-04-16T04:07:56.503Z,46.08
2023-04-16T04:10:23.144Z,46.04
2023-04-16T04:12:49.808Z,46.09
2023-04-16T04:15:16.480Z,46.07
2023-04-16T04:17:43.226Z,46.10
2023-04-16T04:20:10.186Z,46.05
2023-04-16T04:22:36.843Z,46.13
2023-04-16T04:25:03.534Z,46.10
2023-04-16T04:27:30.174Z,46.10
2023-04-16T04:29:56.796Z,46.10
2023-04-16T04:32:23.406Z,46.05
2023-04-16T04:34:50.309Z,46.13
2023-04-16T04:37:17.243Z,46.09
2023-04-16T04:39:43.904Z,46.17
2023-04-16T04:42:10.573Z,46.07
2023-04-16T04:44:37.230Z,46.16
2023-04-16T04:47:03.847Z,46.08
2023-04-16T04:49:30.475Z,46.12
2023-04-16T04:51:57.112Z,46.10
2023-04-16T04:54:23.951Z,46.06
2023-04-16T04:56:50.585Z,46.13
2023-04-16T04:59:17.474Z,46.11
2023-04-16T05:01:44.126Z,46.15
2023-04-16T05:04:10.797Z,46.16
2023-04-16T05:06:37.473Z,46.17
2023-04-16T05:09:04.115Z,46.10
2023-04-16T05:11:30.753Z,46.18
2023-04-16T05:13:57.382Z,46.10
2023-04-16T05:16:24.338Z,46.13
2023-04-16T05:18:50.990Z,46.06
2023-04-16T05:21:17.822Z,46.09
2023-04-16T05:23:44.435Z,46.09
2023-04-16T05:26:11.058Z,46.13
2023-04-16T05:28:37.680Z,46.13
2023-04-16T05:31:04.352Z,46.11
2023-04-16T05:33:31.229Z,46.14
2023-04-16T05:35:57.851Z,46.10
2023-04-16T05:38:24.488Z,46.12
2023-04-16T05:40:51.133Z,46.13
2023-04-16T05:43:17.774Z,46.17
2023-04-16T05:45:44.402Z,46.13
2023-04-16T05:48:11.048Z,46.17
2023-04-16T05:50:37.895Z,46.15
2023-04-16T05:53:04.558Z,46.13
2023-04-16T05:55:31.213Z,46.17
2023-04-16T05:57:57.861Z,46.12
2023-04-16T06:00:24.502Z,46.18
2023-04-16T06:02:51.226Z,46.06
2023-04-16T06:05:17.962Z,46.12
2023-04-16T06:07:44.615Z,46.13
2023-04-16T06:10:11.264Z,46.21
2023-04-16T06:12:37.894Z,46.20
2023-04-16T06:15:04.561Z,46.19
2023-04-16T06:17:31.213Z,46.22
2023-04-16T06:19:57.879Z,46.19
2023-04-16T06:22:26.391Z,46.19
2023-04-16T06:24:53.010Z,46.14
2023-04-16T06:27:19.660Z,46.21
2023-04-16T06:29:46.530Z,46.24
2023-04-16T06:32:13.161Z,46.24
2023-04-16T06:34:39.853Z,46.23
2023-04-16T06:37:08.354Z,46.21
2023-04-16T06:39:36.550Z,46.24
2023-04-16T06:42:03.180Z,46.34
2023-04-16T06:44:29.821Z,46.25
2023-04-16T06:46:56.685Z,46.24
2023-04-16T06:49:23.335Z,46.30
2023-04-16T06:51:49.986Z,46.23
2023-04-16T06:54:16.632Z,46.27
2023-04-16T06:56:43.266Z,46.21
2023-04-16T06:59:10.116Z,46.19
2023-04-16T07:01:36.892Z,46.22
2023-04-16T07:04:04.008Z,46.27
2023-04-16T07:06:30.752Z,46.20
2023-04-16T07:08:57.410Z,46.25
2023-04-16T07:11:24.060Z,46.17
2023-04-16T07:13:50.674Z,46.31
2023-04-16T07:16:17.320Z,46.33
2023-04-16T07:18:44.010Z,46.24
2023-04-16T07:21:10.867Z,46.33
2023-04-16T07:23:37.481Z,46.24
2023-04-16T07:26:04.090Z,46.29
2023-04-16T07:28:30.720Z,46.19
2023-04-16T07:30:57.345Z,46.25
2023-04-16T07:33:23.983Z,46.25
2023-04-16T07:35:50.601Z,46.28
2023-04-16T07:38:17.465Z,46.24
2023-04-16T07:40:44.117Z,46.25
2023-04-16T07:43:10.754Z,46.20
2023-04-16T07:45:37.444Z,46.21
2023-04-16T07:48:04.126Z,46.26
2023-04-16T07:50:30.817Z,46.24
2023-04-16T07:52:57.448Z,46.26
2023-04-16T07:55:24.288Z,46.26
2023-04-16T07:57:50.964Z,46.28
2023-04-16T08:00:17.597Z,46.25
2023-04-16T08:02:44.443Z,46.28
2023-04-16T08:05:11.328Z,46.30
2023-04-16T08:07:38.002Z,46.31
2023-04-16T08:10:04.628Z,46.30
2023-04-16T08:12:31.276Z,46.24
2023-04-16T08:14:57.918Z,46.27
2023-04-16T08:17:24.803Z,46.23
2023-04-16T08:19:51.462Z,46.28
2023-04-16T08:22:18.336Z,46.31
2023-04-16T08:24:45.001Z,46.30
2023-04-16T08:27:18.632Z,46.27
2023-04-16T08:29:46.678Z,46.26
2023-04-16T08:32:13.298Z,46.26
2023-04-16T08:34:39.928Z,46.32
2023-04-16T08:37:06.554Z,46.32
2023-04-16T08:39:33.401Z,46.26
2023-04-16T08:42:00.023Z,46.28
2023-04-16T08:44:26.658Z,46.23
2023-04-16T08:46:53.369Z,46.26
2023-04-16T08:49:20.018Z,46.31
2023-04-16T08:51:46.897Z,46.25
2023-04-16T08:54:13.534Z,46.29
2023-04-16T08:56:42.401Z,46.21
2023-04-16T08:59:09.816Z,46.33
2023-04-16T09:01:36.680Z,46.30
2023-04-16T09:04:03.549Z,46.28
2023-04-16T09:06:30.355Z,46.26
2023-04-16T09:08:57.209Z,46.23
2023-04-16T09:11:23.848Z,46.25
2023-04-16T09:13:50.459Z,46.27
2023-04-16T09:16:17.168Z,46.28
2023-04-16T09:18:43.809Z,46.25
2023-04-16T09:21:10.416Z,46.32
2023-04-16T09:23:37.042Z,46.32
2023-04-16T09:26:03.660Z,46.27
2023-04-16T09:28:30.307Z,46.26
2023-04-16T09:30:57.157Z,46.25
2023-04-16T09:33:23.800Z,46.37
2023-04-16T09:35:50.786Z,46.27
2023-04-16T09:38:17.554Z,46.31
2023-04-16T09:40:44.175Z,46.31
2023-04-16T09:43:10.828Z,46.29
2023-04-16T09:45:37.464Z,46.32
2023-04-16T09:48:04.307Z,46.32
2023-04-16T09:50:31.322Z,46.28
2023-04-16T09:52:57.963Z,46.31
2023-04-16T09:55:24.597Z,46.32
2023-04-16T09:57:51.438Z,46.35
2023-04-16T10:00:18.101Z,46.35
2023-04-16T10:02:45.047Z,46.27
2023-04-16T10:05:11.737Z,46.31
2023-04-16T10:07:38.357Z,46.30
2023-04-16T10:10:05.063Z,46.36
2023-04-16T10:12:31.934Z,46.33
2023-04-16T10:14:58.584Z,46.29
2023-04-16T10:17:25.493Z,46.37
2023-04-16T10:19:53.729Z,46.31
2023-04-16T10:22:20.384Z,46.36
2023-04-16T10:24:47.289Z,46.36
2023-04-16T10:27:13.922Z,46.38
2023-04-16T10:29:40.809Z,46.38
2023-04-16T10:32:07.464Z,46.37
2023-04-16T10:34:34.115Z,46.43
2023-04-16T10:37:00.767Z,46.30
2023-04-16T10:39:27.426Z,46.31
2023-04-16T10:41:54.047Z,46.33
2023-04-16T10:44:20.698Z,46.30
2023-04-16T10:46:47.556Z,46.37
2023-04-16T10:49:14.205Z,46.32
2023-04-16T10:51:40.829Z,46.36
2023-04-16T10:54:07.451Z,46.28
2023-04-16T10:56:34.068Z,46.32
2023-04-16T10:59:00.706Z,46.33
2023-04-16T11:01:27.352Z,46.31
2023-04-16T11:03:54.131Z,46.37
2023-04-16T11:06:20.902Z,46.32
2023-04-16T11:08:54.670Z,46.31
2023-04-16T11:11:21.971Z,46.28
2023-04-16T11:13:48.918Z,46.34
2023-04-16T11:16:15.634Z,46.34
2023-04-16T11:18:50.812Z,46.31
2023-04-16T11:21:18.290Z,46.35
2023-04-16T11:23:44.944Z,46.36
2023-04-16T11:26:11.776Z,46.40
2023-04-16T11:28:38.447Z,46.27
2023-04-16T11:31:05.373Z,46.40
2023-04-16T11:33:32.040Z,46.26
2023-04-16T11:35:58.684Z,46.33
2023-04-16T11:38:25.574Z,46.33
2023-04-16T11:40:52.227Z,46.34
2023-04-16T11:43:19.100Z,46.38
2023-04-16T11:45:45.752Z,46.36
2023-04-16T11:48:12.399Z,46.37
2023-04-16T11:50:39.065Z,46.31
2023-04-16T11:53:05.738Z,46.42
2023-04-16T11:55:32.424Z,46.38
2023-04-16T11:57:59.061Z,46.37
2023-04-16T12:00:25.722Z,46.36
2023-04-16T12:02:52.612Z,46.36
2023-04-16T12:05:19.398Z,46.42
2023-04-16T12:07:46.006Z,46.32
2023-04-16T12:10:12.855Z,46.40
2023-04-16T12:12:39.500Z,46.33
2023-04-16T12:15:06.158Z,46.41
2023-04-16T12:17:32.841Z,46.35
2023-04-16T12:19:59.546Z,46.36
2023-04-16T12:22:26.394Z,46.34
2023-04-16T12:24:53.254Z,46.36
2023-04-16T12:27:19.892Z,46.37
2023-04-16T12:29:46.511Z,46.33
2023-04-16T12:32:13.350Z,46.35
2023-04-16T12:34:39.965Z,46.35
2023-04-16T12:37:15.490Z,46.40
2023-04-16T12:39:42.635Z,46.36
2023-04-16T12:42:09.258Z,46.35
2023-04-16T12:44:35.878Z,46.41
2023-04-16T12:47:02.724Z,46.36
2023-04-16T12:49:29.350Z,46.42
2023-04-16T12:51:56.200Z,46.38
2023-04-16T12:54:22.830Z,46.41
2023-04-16T12:56:49.673Z,46.38
2023-04-16T12:59:16.273Z,46.45
2023-04-16T13:01:42.947Z,46.42
2023-04-16T13:04:09.801Z,46.45
2023-04-16T13:06:36.770Z,46.45
2023-04-16T13:09:03.419Z,46.43
2023-04-16T13:11:30.359Z,46.41
2023-04-16T13:13:56.989Z,46.42
2023-04-16T13:16:23.679Z,46.47
2023-04-16T13:18:50.380Z,46.46
2023-04-16T13:21:17.024Z,46.49
2023-04-16T13:23:43.676Z,46.42
2023-04-16T13:26:10.333Z,46.47
2023-04-16T13:28:36.979Z,46.46
2023-04-16T13:31:05.701Z,46.43
2023-04-16T13:33:32.603Z,46.46
2023-04-16T13:35:59.289Z,46.41
2023-04-16T13:38:25.944Z,46.50
2023-04-16T13:40:52.578Z,46.49
2023-04-16T13:43:19.208Z,46.51
2023-04-16T13:45:45.842Z,46.44
2023-04-16T13:48:12.475Z,46.46
2023-04-16T13:50:39.118Z,46.49
2023-04-16T13:53:05.739Z,46.48
2023-04-16T13:55:32.367Z,46.53
2023-04-16T13:57:58.986Z,46.44
2023-04-16T14:00:25.604Z,46.56
2023-04-16T14:02:52.452Z,46.49
2023-04-16T14:05:19.525Z,46.53
2023-04-16T14:07:46.183Z,46.50
2023-04-16T14:10:12.812Z,46.43
2023-04-16T14:12:39.474Z,46.50
2023-04-16T14:15:06.130Z,46.46
2023-04-16T14:17:33.025Z,46.51
2023-04-16T14:19:59.695Z,46.50
2023-04-16T14:25:13.677Z,46.48
2023-04-16T14:27:40.334Z,46.47
2023-04-16T14:30:07.017Z,46.49
2023-04-16T14:32:33.907Z,46.44
2023-04-16T14:35:00.559Z,46.49
2023-04-16T14:37:27.192Z,46.45
2023-04-16T14:39:53.833Z,46.45
2023-04-16T14:42:20.511Z,46.45
2023-04-16T14:44:47.137Z,46.44
2023-04-16T14:47:13.791Z,46.49
2023-04-16T14:49:40.434Z,46.53
2023-04-16T14:52:07.091Z,46.52
2023-04-16T14:54:33.737Z,46.45
2023-04-16T14:57:00.378Z,46.52
2023-04-16T14:59:27.000Z,46.47
2023-04-16T15:01:53.641Z,46.52
2023-04-16T15:04:20.467Z,46.45
2023-04-16T15:06:47.255Z,46.55
2023-04-16T15:09:13.922Z,46.49
2023-04-16T15:11:40.563Z,46.46
2023-04-16T15:14:07.409Z,46.50
2023-04-16T15:16:34.067Z,46.46
2023-04-16T15:19:01.130Z,46.54
2023-04-16T15:21:28.239Z,46.48
2023-04-16T15:23:54.864Z,46.49
2023-04-16T15:26:21.517Z,46.48
2023-04-16T15:28:48.171Z,46.47
2023-04-16T15:31:14.838Z,46.52
2023-04-16T15:33:41.510Z,46.52
2023-04-16T15:36:08.166Z,46.47
2023-04-16T15:38:35.013Z,46.47
2023-04-16T15:41:01.717Z,46.55
2023-04-16T15:43:28.355Z,46.50
2023-04-16T15:45:55.002Z,46.55
2023-04-16T15:48:21.685Z,46.49
2023-04-16T15:50:48.316Z,46.55
2023-04-16T15:53:15.170Z,46.50
2023-04-16T15:55:41.786Z,46.57
2023-04-16T15:58:08.401Z,46.62
2023-04-16T16:00:35.026Z,46.47
2023-04-16T16:03:01.772Z,46.60
2023-04-16T16:05:28.484Z,46.52
2023-04-16T16:07:55.354Z,46.57
2023-04-16T16:10:21.948Z,46.47
2023-04-16T16:12:48.562Z,46.60
2023-04-16T16:15:15.201Z,46.53
2023-04-16T16:17:41.836Z,46.62
2023-04-16T16:20:08.681Z,46.58
2023-04-16T16:22:35.326Z,46.55
2023-04-16T16:25:01.964Z,46.63
2023-04-16T16:27:28.641Z,46.57
2023-04-16T16:29:55.508Z,46.60
2023-04-16T16:32:22.175Z,46.57
2023-04-16T16:34:48.820Z,46.60
2023-04-16T16:37:15.643Z,46.57
2023-04-16T16:39:42.274Z,46.60
2023-04-16T16:42:08.914Z,46.58
2023-04-16T16:44:35.769Z,46.59
2023-04-16T16:47:02.553Z,46.58
2023-04-16T16:49:29.294Z,46.57
2023-04-16T16:51:55.953Z,46.59
2023-04-16T16:54:22.607Z,46.52
2023-04-16T16:56:49.406Z,46.63
2023-04-16T16:59:16.027Z,46.57
2023-04-16T17:01:42.676Z,46.65
2023-04-16T17:04:09.789Z,46.54
2023-04-16T17:06:36.532Z,46.60
2023-04-16T17:09:03.180Z,46.66
2023-04-16T17:11:29.806Z,46.67
2023-04-16T17:13:56.644Z,46.67
2023-04-16T17:16:23.546Z,46.71
2023-04-16T17:18:50.226Z,46.66
2023-04-16T17:21:17.068Z,46.63
2023-04-16T17:23:43.679Z,46.67
2023-04-16T17:26:10.293Z,46.67
2023-04-16T17:28:36.933Z,46.63
2023-04-16T17:31:03.803Z,46.66
2023-04-16T17:33:30.443Z,46.64
2023-04-16T17:35:57.121Z,46.67
2023-04-16T17:38:23.744Z,46.67
2023-04-16T17:40:50.371Z,46.60
2023-04-16T17:43:17.206Z,46.56
2023-04-16T17:45:43.841Z,46.64
2023-04-16T17:48:10.486Z,46.70
2023-04-16T17:50:39.420Z,46.63
2023-04-16T17:53:06.331Z,46.72
2023-04-16T17:55:32.994Z,46.67
2023-04-16T17:57:59.617Z,46.72
2023-04-16T18:00:26.264Z,46.67
2023-04-16T18:02:52.996Z,46.67
2023-04-16T18:05:19.707Z,46.75
2023-04-16T18:07:46.347Z,46.71
2023-04-16T18:10:12.999Z,46.71
2023-04-16T18:12:39.687Z,46.63
2023-04-16T18:15:07.564Z,46.73
2023-04-16T18:17:34.246Z,46.66
2023-04-16T18:20:01.174Z,46.74
2023-04-16T18:22:27.783Z,46.73
2023-04-16T18:24:54.657Z,46.74
2023-04-16T18:27:21.277Z,46.71
2023-04-16T18:29:49.385Z,46.74
2023-04-16T18:32:16.493Z,46.75
2023-04-16T18:34:43.273Z,46.74
2023-04-16T18:37:09.958Z,46.77
2023-04-16T18:39:39.543Z,46.73
2023-04-16T18:42:06.149Z,46.77
2023-04-16T18:44:32.792Z,46.74
2023-04-16T18:46:59.467Z,46.72
2023-04-16T18:49:26.137Z,46.87
2023-04-16T18:51:52.811Z,46.72
2023-04-16T18:54:19.649Z,46.75
2023-04-16T18:56:46.273Z,46.73
2023-04-16T18:59:13.050Z,46.79
2023-04-16T19:01:39.723Z,46.74
2023-04-16T19:04:06.449Z,46.86
2023-04-16T19:06:33.140Z,46.78
2023-04-16T19:08:59.792Z,46.70
2023-04-16T19:11:26.408Z,46.81
2023-04-16T19:13:53.049Z,46.79
2023-04-16T19:16:19.715Z,46.79
2023-04-16T19:18:46.344Z,46.87
2023-04-16T19:21:13.001Z,46.80
2023-04-16T19:23:39.648Z,46.83
2023-04-16T19:26:06.281Z,46.80
2023-04-16T19:28:32.940Z,46.84
2023-04-16T19:30:59.558Z,46.77
2023-04-16T19:33:26.179Z,46.86
2023-04-16T19:35:53.053Z,46.87
2023-04-16T19:38:19.728Z,46.84
2023-04-16T19:40:46.382Z,46.85
2023-04-16T19:43:13.082Z,46.81
2023-04-16T19:45:39.784Z,46.88
2023-04-16T19:48:06.688Z,46.79
2023-04-16T19:50:33.333Z,46.81
2023-04-16T19:52:59.944Z,46.84
2023-04-16T19:55:26.564Z,46.92
2023-04-16T19:57:53.183Z,46.90
2023-04-16T20:00:19.815Z,46.89
2023-04-16T20:02:46.580Z,46.91
2023-04-16T20:05:13.384Z,46.87
2023-04-16T20:07:42.722Z,46.88
2023-04-16T20:10:09.355Z,46.84
2023-04-16T20:12:35.986Z,46.89
2023-04-16T20:15:02.613Z,46.87
2023-04-16T20:17:29.255Z,46.89
2023-04-16T20:19:55.919Z,46.85
2023-04-16T20:22:22.768Z,46.83
2023-04-16T20:24:49.409Z,46.86
2023-04-16T20:27:16.023Z,46.91
2023-04-16T20:29:42.639Z,46.93
2023-04-16T20:32:09.536Z,46.89
2023-04-16T20:34:36.200Z,46.89
2023-04-16T20:37:02.829Z,46.86
2023-04-16T20:39:29.450Z,46.89
2023-04-16T20:41:56.067Z,46.87
2023-04-16T20:44:22.925Z,46.93
2023-04-16T20:46:49.958Z,46.93
2023-04-16T20:49:16.765Z,46.89
2023-04-16T20:51:43.412Z,46.92
2023-04-16T20:54:10.281Z,46.89
2023-04-16T20:56:36.920Z,46.87
2023-04-16T20:59:03.537Z,46.85
2023-04-16T21:01:30.408Z,46.98
2023-04-16T21:03:57.321Z,46.88
2023-04-16T21:06:24.448Z,46.93
2023-04-16T21:08:51.056Z,46.93
2023-04-16T21:11:17.671Z,46.93
2023-04-16T21:13:44.292Z,46.95
2023-04-16T21:16:10.985Z,46.91
2023-04-16T21:18:37.858Z,47.00
2023-04-16T21:21:04.543Z,46.95
2023-04-16T21:23:31.185Z,46.92
2023-04-16T21:25:57.811Z,46.94
2023-04-16T21:28:24.420Z,46.96
2023-04-16T21:30:51.065Z,46.99
2023-04-16T21:33:17.711Z,46.90
2023-04-16T21:35:44.545Z,46.93
2023-04-16T21:38:11.174Z,46.96
2023-04-16T21:40:37.825Z,46.85
2023-04-16T21:43:04.659Z,46.95
2023-04-16T21:45:31.527Z,46.87
2023-04-16T21:47:58.218Z,46.93
2023-04-16T21:50:24.892Z,46.86
2023-04-16T21:52:51.507Z,46.91
2023-04-16T21:55:18.143Z,47.00
2023-04-16T21:57:44.936Z,46.89
2023-04-16T22:00:11.583Z,46.93
2023-04-16T22:02:38.286Z,46.90
2023-04-16T22:05:04.976Z,47.00
2023-04-16T22:07:31.623Z,46.86
2023-04-16T22:09:58.266Z,46.89
2023-04-16T22:12:24.926Z,46.87
2023-04-16T22:15:01.999Z,46.90
2023-04-16T22:17:29.693Z,46.90
2023-04-16T22:19:56.351Z,46.93
2023-04-16T22:22:23.028Z,46.93
2023-04-16T22:24:49.672Z,46.80
2023-04-16T22:27:16.287Z,46.83
2023-04-16T22:29:43.119Z,46.94
2023-04-16T22:32:09.821Z,46.85
2023-04-16T22:34:36.692Z,46.95
2023-04-16T22:37:03.306Z,46.91
2023-04-16T22:39:29.936Z,46.89
2023-04-16T22:41:56.548Z,46.89
2023-04-16T22:44:23.381Z,46.88
2023-04-16T22:46:50.210Z,46.93
2023-04-16T22:49:17.046Z,46.92
2023-04-16T22:51:43.671Z,46.94
2023-04-16T22:54:11.601Z,46.83
2023-04-16T22:56:39.175Z,46.91
2023-04-16T22:59:05.810Z,46.85
2023-04-16T23:01:32.503Z,46.89
2023-04-16T23:03:59.184Z,46.94
2023-04-16T23:06:25.864Z,46.95
2023-04-16T23:08:52.491Z,47.01
2023-04-16T23:11:19.119Z,46.94
2023-04-16T23:13:45.727Z,46.96
2023-04-16T23:16:12.445Z,46.87
2023-04-16T23:18:39.361Z,46.86
2023-04-16T23:21:06.227Z,46.99
2023-04-16T23:23:32.867Z,46.92
2023-04-16T23:25:59.479Z,46.94
2023-04-16T23:28:26.097Z,47.00
2023-04-16T23:30:52.821Z,46.89
2023-04-16T23:33:19.567Z,46.94
2023-04-16T23:35:46.303Z,46.87
2023-04-16T23:38:12.975Z,46.94
2023-04-16T23:40:39.611Z,46.94
2023-04-16T23:43:06.465Z,46.95
2023-04-16T23:45:33.134Z,46.96
2023-04-16T23:47:59.866Z,46.87
2023-04-16T23:50:26.548Z,46.92
2023-04-16T23:52:53.182Z,46.91
2023-04-16T23:55:19.831Z,46.95
2023-04-16T23:57:46.460Z,46.90
